Terminal Aerodrome Forecast
Issued by NWS Shreveport, LA

Home | Current Version | Previous Version | Text Only | Print | Product List | Glossary On
Versions: 1 2 3 4 5 6 7 8 9 10 11 12 13 14 15
584
FTUS44 KSHV 241739
TAFLFK
TAF
KLFK 241739Z 2418/2518 15008KT P6SM SCT040
     FM250100 14003KT P6SM FEW250
     FM251000 VRB03KT 4SM BR SCT002
     FM251400 12004KT P6SM SCT007 SCT250
     FM251600 13005KT P6SM SCT020 SCT250=

USA.gov is the U.S. government's official web portal to all federal, state and local government web resources and services.